createdAt,value
2022-07-29T00:00:13.290Z,61.24
2022-07-29T00:01:23.617Z,61.55
2022-07-29T00:02:30.828Z,62.48
2022-07-29T00:03:34.969Z,62.01
2022-07-29T00:04:39.158Z,60.20
2022-07-29T00:05:44.863Z,61.32
2022-07-29T00:06:50.555Z,61.32
2022-07-29T00:07:57.160Z,61.69
2022-07-29T00:09:01.189Z,62.25
2022-07-29T00:10:06.085Z,62.54
2022-07-29T00:11:10.279Z,63.16
2022-07-29T00:12:16.204Z,63.21
2022-07-29T00:13:32.269Z,63.42
2022-07-29T00:14:37.531Z,63.42
2022-07-29T00:15:40.398Z,63.80
2022-07-29T00:16:48.283Z,63.80
2022-07-29T00:17:53.837Z,64.15
2022-07-29T00:19:01.813Z,64.91
2022-07-29T00:20:04.169Z,64.91
2022-07-29T00:21:08.205Z,65.12
2022-07-29T00:22:12.250Z,65.12
2022-07-29T00:23:16.377Z,64.08
2022-07-29T00:24:22.097Z,65.63
2022-07-29T00:25:27.253Z,65.63
2022-07-29T00:26:32.655Z,65.01
2022-07-29T00:27:37.759Z,64.31
2022-07-29T00:28:44.798Z,64.31
2022-07-29T00:29:48.801Z,62.24
2022-07-29T00:30:53.400Z,62.24
2022-07-29T00:32:04.301Z,65.44
2022-07-29T00:33:05.891Z,64.99
2022-07-29T00:34:08.860Z,64.88
2022-07-29T00:35:14.549Z,65.54
2022-07-29T00:36:19.677Z,65.27
2022-07-29T00:37:26.388Z,65.84
2022-07-29T00:38:42.609Z,65.84
2022-07-29T00:39:36.271Z,66.02
2022-07-29T00:40:43.899Z,66.10
2022-07-29T00:41:49.426Z,66.10
2022-07-29T00:42:59.309Z,66.01
2022-07-29T00:45:07.117Z,65.92
2022-07-29T00:45:24.198Z,65.87
2022-07-29T00:46:28.585Z,65.87
2022-07-29T00:47:32.857Z,66.14
2022-07-29T00:48:37.257Z,66.26
2022-07-29T00:49:42.736Z,66.23
2022-07-29T00:50:51.470Z,66.62
2022-07-29T00:51:58.379Z,66.70
2022-07-29T00:53:14.911Z,66.50
2022-07-29T00:54:22.079Z,66.51
2022-07-29T00:55:33.068Z,66.51
2022-07-29T00:56:38.284Z,66.72
2022-07-29T00:58:05.562Z,66.52
2022-07-29T01:00:29.856Z,66.84
2022-07-29T01:01:37.172Z,66.19
2022-07-29T01:02:44.549Z,65.73
2022-07-29T01:03:49.902Z,65.73
2022-07-29T01:04:54.818Z,65.49
2022-07-29T01:06:03.176Z,65.49
2022-07-29T01:07:08.193Z,65.69
2022-07-29T01:08:16.319Z,66.29
2022-07-29T01:09:40.796Z,66.07
2022-07-29T01:10:29.299Z,66.83
2022-07-29T01:11:34.320Z,67.56
2022-07-29T01:12:42.448Z,67.49
2022-07-29T01:13:52.899Z,67.49
2022-07-29T01:15:02.988Z,67.72
2022-07-29T01:16:28.441Z,68.17
2022-07-29T01:17:26.170Z,68.24
2022-07-29T01:18:34.765Z,68.08
2022-07-29T01:19:44.466Z,68.53
2022-07-29T01:21:21.371Z,68.86
2022-07-29T01:22:47.938Z,68.38
2022-07-29T01:24:17.465Z,68.49
2022-07-29T01:25:36.003Z,68.82
2022-07-29T01:26:44.744Z,68.82
2022-07-29T01:28:15.356Z,69.32
2022-07-29T01:29:22.469Z,69.32
2022-07-29T01:31:01.566Z,69.53
2022-07-29T01:31:58.623Z,69.78
2022-07-29T01:33:02.481Z,69.78
2022-07-29T01:34:10.868Z,69.77
2022-07-29T01:35:22.363Z,69.91
2022-07-29T01:36:40.682Z,70.24
2022-07-29T01:38:03.103Z,69.76
2022-07-29T01:39:29.627Z,69.76
2022-07-29T01:40:48.404Z,70.18
2022-07-29T01:41:57.896Z,70.43
2022-07-29T01:43:05.341Z,70.80
2022-07-29T01:44:44.096Z,70.60
2022-07-29T01:45:31.734Z,70.60
2022-07-29T01:46:41.842Z,70.52
2022-07-29T01:48:05.510Z,70.52
2022-07-29T01:49:13.958Z,70.60
2022-07-29T01:50:24.347Z,70.77
2022-07-29T01:51:34.314Z,70.60
2022-07-29T01:53:05.099Z,70.79
2022-07-29T01:54:35.579Z,70.68
2022-07-29T01:55:47.598Z,70.56
2022-07-29T01:56:58.494Z,70.55
2022-07-29T01:58:07.531Z,70.55
2022-07-29T01:59:18.205Z,70.52
2022-07-29T02:00:33.662Z,70.37
2022-07-29T02:01:47.259Z,70.53
2022-07-29T02:02:54.350Z,70.32
2022-07-29T02:05:06.575Z,70.30
2022-07-29T02:05:13.482Z,70.32
2022-07-29T02:06:22.417Z,70.09
2022-07-29T02:07:30.892Z,70.29
2022-07-29T02:08:37.225Z,70.62
2022-07-29T02:09:42.592Z,70.25
2022-07-29T02:11:03.390Z,70.36
2022-07-29T02:12:00.148Z,70.01
2022-07-29T02:13:08.222Z,70.01
2022-07-29T02:14:14.765Z,70.68
2022-07-29T02:15:20.005Z,70.29
2022-07-29T02:16:35.053Z,70.60
2022-07-29T02:17:43.945Z,70.60
2022-07-29T02:18:51.366Z,70.56
2022-07-29T02:20:02.357Z,70.75
2022-07-29T02:21:15.172Z,70.01
2022-07-29T02:22:18.737Z,70.01
2022-07-29T02:23:50.383Z,70.30
2022-07-29T02:24:52.768Z,70.49
2022-07-29T02:26:03.148Z,70.49
2022-07-29T02:27:17.974Z,70.09
2022-07-29T02:28:28.177Z,69.89
2022-07-29T02:29:36.111Z,69.89
2022-07-29T02:31:00.182Z,69.70
2022-07-29T02:32:02.038Z,69.31
2022-07-29T02:33:09.233Z,68.92
2022-07-29T02:34:20.158Z,68.92
2022-07-29T02:35:34.954Z,68.49
2022-07-29T02:36:49.424Z,67.90
2022-07-29T02:37:50.375Z,67.80
2022-07-29T02:38:56.926Z,67.08
2022-07-29T02:40:01.942Z,67.07
2022-07-29T02:41:14.022Z,66.15
2022-07-29T02:42:20.015Z,65.75
2022-07-29T02:43:27.163Z,65.65
2022-07-29T02:44:34.682Z,65.65
2022-07-29T02:45:38.281Z,65.00
2022-07-29T02:46:46.873Z,64.18
2022-07-29T02:47:52.997Z,64.18
2022-07-29T02:49:05.713Z,63.54
2022-07-29T02:50:17.890Z,62.57
2022-07-29T02:51:45.662Z,61.83
2022-07-29T02:52:57.583Z,61.35
2022-07-29T02:54:04.753Z,60.49
2022-07-29T02:55:17.467Z,60.49
2022-07-29T02:56:28.721Z,59.74
2022-07-29T02:57:55.390Z,59.02
2022-07-29T03:02:15.672Z,57.17
2022-07-29T03:03:22.153Z,57.17
2022-07-29T03:04:28.612Z,56.68
2022-07-29T03:05:33.565Z,56.57
2022-07-29T03:06:39.815Z,56.86
2022-07-29T03:07:46.684Z,57.19
2022-07-29T03:08:53.477Z,57.78
2022-07-29T03:09:59.501Z,58.13
2022-07-29T03:11:04.938Z,57.59
2022-07-29T03:12:09.494Z,57.04
2022-07-29T03:13:15.268Z,57.04
2022-07-29T03:14:21.734Z,55.78
2022-07-29T03:15:29.728Z,54.96
2022-07-29T03:16:41.002Z,54.99
2022-07-29T03:17:43.470Z,54.10
2022-07-29T03:18:54.190Z,53.60
2022-07-29T03:19:57.913Z,52.92
2022-07-29T03:21:05.124Z,52.29
2022-07-29T03:22:09.316Z,52.29
2022-07-29T03:23:15.054Z,51.46
2022-07-29T03:24:36.764Z,50.73
2022-07-29T03:25:41.010Z,50.73
2022-07-29T03:26:48.305Z,49.08
2022-07-29T03:27:50.958Z,48.60
2022-07-29T03:28:56.160Z,48.27
2022-07-29T03:30:00.136Z,47.82
2022-07-29T03:31:04.204Z,47.82
2022-07-29T03:32:09.830Z,47.45
2022-07-29T03:33:14.731Z,46.55
2022-07-29T03:34:25.673Z,46.55
2022-07-29T03:35:40.681Z,47.31
2022-07-29T03:36:41.325Z,47.28
2022-07-29T03:37:46.819Z,47.23
2022-07-29T03:38:51.723Z,46.79
2022-07-29T03:39:58.227Z,46.32
2022-07-29T03:41:08.403Z,46.32
2022-07-29T03:42:17.421Z,45.65
2022-07-29T03:43:24.139Z,46.25
2022-07-29T03:44:30.258Z,44.99
2022-07-29T03:45:35.988Z,45.00
2022-07-29T03:46:42.779Z,44.51
2022-07-29T03:47:57.057Z,44.37
2022-07-29T03:49:01.671Z,44.54
2022-07-29T03:50:11.053Z,43.59
2022-07-29T03:51:14.885Z,43.46
2022-07-29T03:52:19.234Z,43.46
2022-07-29T03:53:23.944Z,43.50
2022-07-29T03:54:28.172Z,43.71
2022-07-29T03:55:35.165Z,42.12
2022-07-29T03:56:43.442Z,42.07
2022-07-29T03:57:47.664Z,42.05
2022-07-29T03:58:55.005Z,41.40
2022-07-29T04:00:01.087Z,40.65
2022-07-29T04:01:05.301Z,41.20
2022-07-29T04:02:12.305Z,41.27
2022-07-29T04:03:18.006Z,41.27
2022-07-29T04:04:22.981Z,39.83
2022-07-29T04:05:27.045Z,39.83
2022-07-29T04:06:32.524Z,39.40
2022-07-29T04:07:36.621Z,39.40
2022-07-29T04:08:40.653Z,39.45
2022-07-29T04:09:46.099Z,38.80
2022-07-29T04:10:50.203Z,38.80
2022-07-29T04:12:01.820Z,37.90
2022-07-29T04:13:01.772Z,37.52
2022-07-29T04:14:08.961Z,37.75
2022-07-29T04:15:19.446Z,37.87
2022-07-29T04:16:22.760Z,37.74
2022-07-29T04:17:26.432Z,37.74
2022-07-29T04:18:33.118Z,38.25
2022-07-29T04:19:38.801Z,38.25
2022-07-29T04:20:46.117Z,38.40
2022-07-29T04:21:50.231Z,36.98
2022-07-29T04:22:54.279Z,36.73
2022-07-29T04:23:58.353Z,36.73
2022-07-29T04:25:04.166Z,35.18
2022-07-29T04:26:10.912Z,34.95
2022-07-29T04:27:16.498Z,34.88
2022-07-29T04:28:22.351Z,34.88
2022-07-29T04:29:33.271Z,33.79
2022-07-29T04:30:42.311Z,34.58
2022-07-29T04:32:16.078Z,33.54
2022-07-29T04:32:53.621Z,34.69
2022-07-29T04:34:06.307Z,34.25
2022-07-29T04:35:12.568Z,33.78
2022-07-29T04:36:28.913Z,33.74
2022-07-29T04:37:24.065Z,33.91
2022-07-29T04:38:28.239Z,33.42
2022-07-29T04:39:32.353Z,33.42
2022-07-29T04:40:38.530Z,34.01
2022-07-29T04:41:44.004Z,32.03
2022-07-29T04:42:49.524Z,31.32
2022-07-29T04:43:56.205Z,31.32
2022-07-29T04:45:01.635Z,31.99
2022-07-29T04:46:07.452Z,31.28
2022-07-29T04:47:13.071Z,31.60
2022-07-29T04:48:17.235Z,31.60
2022-07-29T04:49:21.246Z,30.82
2022-07-29T04:50:25.620Z,30.82
2022-07-29T04:51:31.453Z,31.20
2022-07-29T04:52:37.192Z,31.04
2022-07-29T04:53:41.230Z,31.21
2022-07-29T04:54:45.141Z,31.21
2022-07-29T04:55:49.119Z,29.89
2022-07-29T04:56:53.575Z,29.15
2022-07-29T04:58:18.296Z,29.52
2022-07-29T04:59:45.658Z,29.79
2022-07-29T05:00:47.250Z,29.79
2022-07-29T05:01:49.843Z,29.55
2022-07-29T05:02:55.639Z,29.55
2022-07-29T05:04:00.717Z,29.79
2022-07-29T05:05:05.324Z,29.61
2022-07-29T05:06:16.094Z,29.92
2022-07-29T05:08:47.427Z,29.82
2022-07-29T05:09:52.968Z,29.69
2022-07-29T05:10:57.304Z,29.57
2022-07-29T05:12:08.544Z,29.21
2022-07-29T05:13:14.030Z,29.06
2022-07-29T05:14:18.624Z,29.06
2022-07-29T05:15:24.630Z,29.51
2022-07-29T05:16:29.534Z,30.03
2022-07-29T05:19:05.077Z,29.30
2022-07-29T05:20:12.665Z,29.30
2022-07-29T05:21:16.703Z,30.07
2022-07-29T05:22:25.306Z,29.10
2022-07-29T05:23:30.786Z,29.05
2022-07-29T05:24:36.324Z,28.79
2022-07-29T05:25:44.557Z,29.38
2022-07-29T05:26:50.883Z,29.38
2022-07-29T05:28:14.258Z,29.29
2022-07-29T05:29:07.035Z,29.38
2022-07-29T05:30:12.988Z,29.85
2022-07-29T05:31:17.226Z,30.04
2022-07-29T05:32:22.862Z,30.04
2022-07-29T05:33:35.887Z,29.74
2022-07-29T05:34:34.270Z,29.74
2022-07-29T05:35:40.065Z,29.96
2022-07-29T05:36:44.072Z,30.27
2022-07-29T05:37:48.155Z,30.03
2022-07-29T05:38:52.254Z,30.03
2022-07-29T05:39:59.001Z,29.82
2022-07-29T05:41:01.974Z,30.16
2022-07-29T05:42:10.898Z,30.74
2022-07-29T05:43:16.640Z,30.47
2022-07-29T05:44:25.283Z,30.51
2022-07-29T05:45:26.901Z,30.38
2022-07-29T05:46:32.140Z,30.38
2022-07-29T05:47:38.662Z,31.04
2022-07-29T05:48:44.542Z,31.04
2022-07-29T05:49:48.753Z,31.35
2022-07-29T05:50:54.703Z,31.35
2022-07-29T05:51:58.694Z,31.25
2022-07-29T05:53:19.749Z,31.18
2022-07-29T05:54:08.474Z,31.18
2022-07-29T05:55:16.407Z,31.35
2022-07-29T05:56:21.053Z,31.35
2022-07-29T05:57:27.043Z,29.82
2022-07-29T05:58:33.786Z,29.77
2022-07-29T05:59:38.341Z,30.17
2022-07-29T06:00:42.923Z,30.17
2022-07-29T06:01:48.458Z,29.89
2022-07-29T06:02:52.600Z,30.17
2022-07-29T06:03:56.587Z,29.27
2022-07-29T06:05:00.832Z,28.90
2022-07-29T06:06:05.080Z,29.66
2022-07-29T06:07:09.378Z,29.66
2022-07-29T06:08:13.584Z,29.86
2022-07-29T06:09:18.721Z,29.82
2022-07-29T06:10:24.001Z,29.82
2022-07-29T06:11:31.992Z,30.26
2022-07-29T06:12:58.118Z,30.95
2022-07-29T06:14:00.363Z,30.72
2022-07-29T06:15:04.938Z,30.70
2022-07-29T06:16:10.633Z,30.32
2022-07-29T06:17:18.039Z,30.32
2022-07-29T06:18:22.552Z,30.64
2022-07-29T06:19:28.427Z,30.32
2022-07-29T06:20:35.336Z,30.76
2022-07-29T06:21:44.357Z,30.36
2022-07-29T06:22:49.419Z,30.25
2022-07-29T06:23:53.755Z,29.96
2022-07-29T06:24:57.717Z,29.50
2022-07-29T06:26:07.520Z,29.50
2022-07-29T06:27:14.522Z,28.98
2022-07-29T06:28:18.526Z,29.60
2022-07-29T06:29:25.205Z,29.59
2022-07-29T06:30:30.616Z,29.59
2022-07-29T06:31:38.889Z,30.03
2022-07-29T06:32:44.461Z,30.35
2022-07-29T06:33:48.442Z,30.35
2022-07-29T06:34:52.580Z,29.46
2022-07-29T06:35:59.260Z,29.71
2022-07-29T06:37:08.637Z,30.00
2022-07-29T06:38:30.107Z,30.01
2022-07-29T06:39:21.078Z,29.63
2022-07-29T06:40:27.008Z,29.77
2022-07-29T06:41:31.054Z,29.30
2022-07-29T06:42:35.084Z,30.14
2022-07-29T06:43:50.337Z,30.14
2022-07-29T06:44:48.915Z,30.35
2022-07-29T06:45:52.706Z,30.37
2022-07-29T06:46:57.456Z,29.58
2022-07-29T06:48:01.583Z,29.92
2022-07-29T06:49:06.473Z,29.89
2022-07-29T06:50:13.867Z,29.89
2022-07-29T06:51:22.542Z,29.35
2022-07-29T06:52:27.257Z,29.78
2022-07-29T06:53:35.605Z,29.78
2022-07-29T06:54:39.570Z,30.30
2022-07-29T06:55:47.717Z,30.30
2022-07-29T06:56:53.393Z,30.26
2022-07-29T06:57:57.372Z,30.63
2022-07-29T06:59:01.648Z,29.79
2022-07-29T07:00:06.723Z,30.29
2022-07-29T07:01:10.849Z,29.94
2022-07-29T07:02:16.590Z,29.94
2022-07-29T07:03:21.215Z,30.03
2022-07-29T07:04:25.479Z,30.41
2022-07-29T07:05:30.573Z,29.72
2022-07-29T07:06:34.791Z,29.72
2022-07-29T07:07:41.526Z,30.46
2022-07-29T07:08:45.737Z,29.61
2022-07-29T07:10:03.267Z,29.59
2022-07-29T07:10:57.893Z,29.11
2022-07-29T07:12:01.892Z,29.11
2022-07-29T07:13:06.425Z,28.94
2022-07-29T07:14:10.680Z,28.75
2022-07-29T07:15:14.759Z,28.63
2022-07-29T07:16:21.475Z,28.85
2022-07-29T07:17:25.630Z,28.77
2022-07-29T07:18:32.066Z,29.11
2022-07-29T07:19:39.918Z,28.19
2022-07-29T07:20:44.433Z,28.19
2022-07-29T07:21:50.206Z,28.72
2022-07-29T07:22:54.366Z,28.75
2022-07-29T07:23:59.055Z,28.78
2022-07-29T07:25:03.149Z,28.78
2022-07-29T07:26:07.412Z,27.92
2022-07-29T07:27:12.699Z,28.77
2022-07-29T07:28:16.890Z,28.42
2022-07-29T07:29:23.150Z,28.42
2022-07-29T07:30:28.853Z,28.76
2022-07-29T07:31:34.656Z,29.59
2022-07-29T07:32:50.396Z,28.92
2022-07-29T07:34:44.075Z,28.92
2022-07-29T07:35:07.222Z,28.66
2022-07-29T07:36:12.781Z,28.24
2022-07-29T07:37:18.449Z,29.04
2022-07-29T07:38:25.503Z,29.37
2022-07-29T07:40:20.500Z,29.37
2022-07-29T07:40:42.514Z,28.96
2022-07-29T07:41:52.796Z,28.49
2022-07-29T07:42:58.395Z,29.85
2022-07-29T07:43:59.481Z,29.14
2022-07-29T07:45:13.616Z,28.98
2022-07-29T07:46:09.829Z,28.98
2022-07-29T07:47:14.355Z,29.27
2022-07-29T07:48:20.817Z,29.61
2022-07-29T07:49:26.576Z,28.72
2022-07-29T07:50:32.142Z,28.72
2022-07-29T07:51:36.365Z,28.87
2022-07-29T07:52:52.048Z,28.62
2022-07-29T07:53:56.160Z,29.17
2022-07-29T07:55:02.085Z,29.39
2022-07-29T07:56:12.410Z,29.39
2022-07-29T07:57:13.942Z,29.21
2022-07-29T07:58:17.975Z,29.21
2022-07-29T07:59:22.112Z,30.14
2022-07-29T08:00:27.055Z,29.82
2022-07-29T08:01:31.165Z,29.28
2022-07-29T08:02:36.844Z,30.34
2022-07-29T08:03:42.370Z,30.34
2022-07-29T08:04:46.327Z,29.83
2022-07-29T08:05:50.557Z,29.76
2022-07-29T08:06:58.723Z,29.76
2022-07-29T08:08:02.759Z,30.63
2022-07-29T08:09:28.091Z,30.51
2022-07-29T08:10:17.654Z,30.08
2022-07-29T08:11:22.482Z,30.08
2022-07-29T08:12:26.533Z,30.35
2022-07-29T08:13:30.623Z,30.13
2022-07-29T08:14:36.292Z,30.36
2022-07-29T08:15:41.485Z,30.36
2022-07-29T08:16:45.622Z,31.16
2022-07-29T08:17:49.695Z,30.60
2022-07-29T08:18:53.796Z,30.68
2022-07-29T08:19:58.109Z,30.68
2022-07-29T08:21:03.607Z,30.32
2022-07-29T08:22:07.814Z,31.22
2022-07-29T08:23:11.844Z,31.03
2022-07-29T08:24:16.018Z,30.29
2022-07-29T08:25:21.903Z,30.29
2022-07-29T08:26:27.666Z,31.21
2022-07-29T08:27:43.415Z,31.21
2022-07-29T08:28:41.168Z,31.18
2022-07-29T08:29:45.271Z,31.16
2022-07-29T08:30:49.420Z,31.33
2022-07-29T08:31:54.002Z,31.59
2022-07-29T08:33:02.011Z,30.48
2022-07-29T08:34:07.019Z,30.77
2022-07-29T08:35:11.184Z,30.64
2022-07-29T08:36:16.222Z,30.39
2022-07-29T08:37:20.202Z,30.95
2022-07-29T08:38:24.233Z,30.58
2022-07-29T08:39:28.352Z,30.21
2022-07-29T08:40:32.909Z,31.06
2022-07-29T08:41:37.881Z,30.28
2022-07-29T08:42:44.521Z,30.28
2022-07-29T08:43:51.249Z,30.32
2022-07-29T08:45:00.714Z,31.30
2022-07-29T08:46:14.515Z,31.27
2022-07-29T08:47:18.198Z,31.27
2022-07-29T08:48:24.287Z,31.31
2022-07-29T08:49:28.423Z,31.62
2022-07-29T08:50:32.932Z,31.62
2022-07-29T08:51:48.544Z,31.76
2022-07-29T08:52:45.901Z,31.58
2022-07-29T08:53:52.604Z,30.97
2022-07-29T08:54:57.062Z,30.97
2022-07-29T08:56:02.587Z,31.80
2022-07-29T08:57:07.555Z,30.68
2022-07-29T08:58:17.984Z,30.65
2022-07-29T08:59:27.514Z,30.65
2022-07-29T09:00:33.414Z,30.51
2022-07-29T09:01:42.673Z,30.77
2022-07-29T09:02:48.237Z,31.54
2022-07-29T09:03:58.356Z,30.56
2022-07-29T09:05:50.738Z,31.31
2022-07-29T09:06:11.170Z,31.31
2022-07-29T09:07:17.629Z,31.21
2022-07-29T09:08:22.294Z,31.36
2022-07-29T09:09:26.413Z,30.95
2022-07-29T09:10:32.120Z,31.50
2022-07-29T09:11:36.329Z,31.56
2022-07-29T09:12:40.578Z,31.56
2022-07-29T09:13:44.712Z,31.56
2022-07-29T09:14:48.971Z,31.47
2022-07-29T09:15:53.220Z,31.79
2022-07-29T09:16:57.894Z,31.79
2022-07-29T09:18:03.146Z,31.77
2022-07-29T09:19:10.218Z,31.07
2022-07-29T09:20:18.150Z,30.36
2022-07-29T09:21:22.271Z,30.36
2022-07-29T09:22:30.811Z,31.52
2022-07-29T09:23:34.869Z,31.65
2022-07-29T09:24:49.571Z,31.66
2022-07-29T09:25:52.403Z,31.46
2022-07-29T09:26:57.047Z,31.46
2022-07-29T09:28:14.990Z,32.26
2022-07-29T09:29:20.691Z,32.62
2022-07-29T09:30:31.753Z,32.62
2022-07-29T09:31:37.599Z,32.35
2022-07-29T09:32:55.883Z,32.35
2022-07-29T09:34:03.054Z,31.29
2022-07-29T09:35:21.903Z,31.75
2022-07-29T09:36:27.679Z,31.43
2022-07-29T09:37:31.727Z,31.43
2022-07-29T09:38:36.802Z,32.42
2022-07-29T09:39:44.441Z,32.35
2022-07-29T09:41:01.742Z,32.66
2022-07-29T09:42:07.865Z,32.66
2022-07-29T09:43:19.237Z,32.24
2022-07-29T09:44:20.323Z,32.56
2022-07-29T09:45:35.855Z,32.56
2022-07-29T09:46:41.880Z,33.72
2022-07-29T09:47:48.562Z,33.04
2022-07-29T09:49:10.295Z,32.25
2022-07-29T09:50:16.575Z,32.02
2022-07-29T09:51:25.489Z,32.02
2022-07-29T09:52:30.557Z,32.56
2022-07-29T09:53:38.612Z,32.43
2022-07-29T09:54:44.160Z,32.18
2022-07-29T09:55:53.262Z,32.18
2022-07-29T09:57:00.863Z,33.69
2022-07-29T09:58:23.618Z,31.94
2022-07-29T09:59:27.746Z,31.94
2022-07-29T10:00:35.416Z,32.00
2022-07-29T10:01:41.420Z,32.00
2022-07-29T10:02:51.272Z,31.73
2022-07-29T10:04:03.115Z,31.89
2022-07-29T10:05:07.969Z,31.89
2022-07-29T10:06:13.525Z,32.42
2022-07-29T10:07:55.227Z,32.42
2022-07-29T10:08:51.615Z,32.06
2022-07-29T10:09:58.273Z,31.38
2022-07-29T10:11:19.547Z,32.02
2022-07-29T10:12:30.772Z,31.59
2022-07-29T10:13:31.901Z,31.21
2022-07-29T10:14:39.115Z,31.21
2022-07-29T10:15:47.703Z,32.14
2022-07-29T10:16:53.732Z,31.00
2022-07-29T10:18:00.723Z,31.31
2022-07-29T10:19:04.840Z,31.31
2022-07-29T10:20:16.110Z,31.58
2022-07-29T10:21:35.054Z,31.64
2022-07-29T10:22:50.765Z,31.64
2022-07-29T10:23:46.727Z,31.51
2022-07-29T10:24:40.209Z,30.36
2022-07-29T10:25:46.815Z,31.08
2022-07-29T10:26:51.836Z,30.52
2022-07-29T10:27:56.447Z,30.52
2022-07-29T10:29:03.652Z,30.53
2022-07-29T10:30:08.372Z,29.65
2022-07-29T10:31:24.410Z,30.11
2022-07-29T10:32:35.678Z,30.04
2022-07-29T10:33:44.118Z,30.53
2022-07-29T10:34:54.209Z,30.34
2022-07-29T10:36:09.579Z,30.34
2022-07-29T10:37:23.032Z,30.52
2022-07-29T10:38:36.590Z,29.76
2022-07-29T10:40:02.859Z,29.59
2022-07-29T10:41:12.473Z,30.89
2022-07-29T10:42:33.449Z,30.57
2022-07-29T10:43:32.984Z,30.55
2022-07-29T10:44:38.957Z,30.60
2022-07-29T10:45:50.277Z,30.24
2022-07-29T10:46:59.413Z,30.24
2022-07-29T10:48:07.961Z,31.64
2022-07-29T10:49:20.217Z,31.64
2022-07-29T10:50:27.121Z,31.58
2022-07-29T10:51:50.195Z,30.69
2022-07-29T10:52:56.150Z,30.69
2022-07-29T10:54:02.754Z,29.91
2022-07-29T10:55:09.035Z,30.16
2022-07-29T10:56:30.594Z,31.08
2022-07-29T10:57:53.303Z,31.08
2022-07-29T10:59:06.310Z,31.52
2022-07-29T11:00:59.894Z,31.24
2022-07-29T11:02:42.117Z,31.01
2022-07-29T11:03:53.677Z,31.56
2022-07-29T11:05:04.014Z,31.56
2022-07-29T11:06:08.684Z,31.55
2022-07-29T11:07:15.162Z,31.36
2022-07-29T11:08:26.461Z,31.61
2022-07-29T11:09:37.530Z,31.61
2022-07-29T11:10:39.222Z,31.45
2022-07-29T11:11:51.341Z,31.77
2022-07-29T11:12:48.871Z,31.82
2022-07-29T11:14:26.571Z,31.86
2022-07-29T11:15:14.802Z,32.11
2022-07-29T11:16:21.880Z,32.01
2022-07-29T11:17:46.887Z,32.01
2022-07-29T11:19:15.950Z,30.96
2022-07-29T11:20:42.377Z,30.56
2022-07-29T11:22:05.508Z,30.56
2022-07-29T11:22:57.807Z,30.84
2022-07-29T11:24:28.578Z,30.67
2022-07-29T11:25:50.729Z,30.50
2022-07-29T11:26:33.102Z,30.95
2022-07-29T11:27:40.188Z,31.04
2022-07-29T11:29:02.156Z,30.55
2022-07-29T11:30:07.279Z,30.73
2022-07-29T11:31:23.135Z,30.62
2022-07-29T11:32:31.858Z,30.62
2022-07-29T11:33:54.815Z,30.43
2022-07-29T11:34:56.646Z,30.65
2022-07-29T11:36:16.847Z,30.97
2022-07-29T11:37:20.004Z,30.97
2022-07-29T11:38:29.287Z,31.62
2022-07-29T11:39:42.672Z,31.83
2022-07-29T11:40:49.757Z,32.08
2022-07-29T11:41:54.069Z,32.08
2022-07-29T11:42:59.707Z,31.38
2022-07-29T11:44:20.420Z,31.90
2022-07-29T11:45:43.289Z,31.90
2022-07-29T11:46:47.598Z,31.50
2022-07-29T11:48:00.724Z,31.30
2022-07-29T11:49:09.690Z,31.75
2022-07-29T11:50:17.549Z,31.27
2022-07-29T11:51:32.743Z,30.89
2022-07-29T11:52:49.594Z,30.89
2022-07-29T11:53:58.997Z,30.97
2022-07-29T11:55:00.827Z,30.73
2022-07-29T11:56:07.411Z,30.73
2022-07-29T11:57:11.492Z,31.71
2022-07-29T11:58:27.302Z,30.72
2022-07-29T11:59:40.633Z,30.72
2022-07-29T12:00:45.277Z,31.96
2022-07-29T12:02:33.178Z,31.96
2022-07-29T12:03:10.035Z,31.34
2022-07-29T12:04:15.465Z,31.76
2022-07-29T12:05:35.983Z,31.21
2022-07-29T12:06:47.514Z,31.21
2022-07-29T12:10:30.418Z,31.54
2022-07-29T12:11:28.794Z,31.86
2022-07-29T12:12:32.081Z,31.39
2022-07-29T12:13:44.492Z,31.17
2022-07-29T12:14:52.629Z,31.66
2022-07-29T12:15:59.981Z,31.66
2022-07-29T12:17:07.367Z,31.60
2022-07-29T12:18:13.083Z,31.60
2022-07-29T12:19:19.433Z,31.81
2022-07-29T12:20:30.232Z,31.81
2022-07-29T12:21:56.425Z,31.21
2022-07-29T12:22:57.239Z,31.61
2022-07-29T12:24:08.659Z,32.30
2022-07-29T12:25:33.820Z,31.73
2022-07-29T12:26:21.834Z,30.98
2022-07-29T12:27:29.567Z,30.98
2022-07-29T12:28:41.073Z,30.52
2022-07-29T12:30:08.639Z,30.79
2022-07-29T12:30:59.816Z,30.79
2022-07-29T12:33:26.015Z,30.33
2022-07-29T12:34:38.234Z,30.30
2022-07-29T12:35:43.293Z,30.83
2022-07-29T12:37:52.939Z,30.44
2022-07-29T12:37:58.186Z,30.44
2022-07-29T12:39:10.635Z,31.08
2022-07-29T12:42:08.064Z,30.53
2022-07-29T12:43:28.117Z,31.08
2022-07-29T12:44:20.563Z,31.08
2022-07-29T12:45:49.195Z,30.89
2022-07-29T12:47:07.456Z,29.97
2022-07-29T12:48:13.915Z,29.79
2022-07-29T12:49:45.469Z,29.82
2022-07-29T12:50:36.698Z,29.82
2022-07-29T12:51:47.596Z,29.50
2022-07-29T12:52:57.270Z,30.43
2022-07-29T12:54:09.966Z,31.16
2022-07-29T12:55:14.238Z,31.16
2022-07-29T12:56:41.750Z,31.50
2022-07-29T12:57:32.209Z,31.50
2022-07-29T12:58:41.145Z,31.76
2022-07-29T13:00:16.330Z,30.99
2022-07-29T13:01:25.133Z,30.99
2022-07-29T13:02:29.481Z,31.25
2022-07-29T13:03:57.720Z,31.35
2022-07-29T13:06:13.380Z,31.79
2022-07-29T13:06:38.512Z,33.68
2022-07-29T13:07:54.214Z,31.79
2022-07-29T13:08:45.040Z,31.52
2022-07-29T13:09:53.528Z,31.52
2022-07-29T13:11:00.881Z,31.14
2022-07-29T13:12:12.837Z,31.14
2022-07-29T13:13:18.503Z,31.91
2022-07-29T13:14:37.446Z,31.81
2022-07-29T13:15:45.757Z,31.81
2022-07-29T13:18:37.326Z,31.87
2022-07-29T13:21:43.046Z,31.82
2022-07-29T13:22:51.597Z,31.35
2022-07-29T13:23:55.638Z,31.35
2022-07-29T13:25:01.403Z,33.40
2022-07-29T13:26:10.039Z,32.46
2022-07-29T13:27:16.675Z,32.46
2022-07-29T13:28:22.225Z,33.25
2022-07-29T13:29:31.452Z,32.94
2022-07-29T13:30:44.449Z,32.54
2022-07-29T13:31:43.432Z,32.54
2022-07-29T13:32:47.534Z,32.42
2022-07-29T13:33:53.929Z,31.69
2022-07-29T13:34:59.097Z,32.14
2022-07-29T13:36:03.283Z,31.70
2022-07-29T13:37:07.415Z,31.70
2022-07-29T13:38:11.611Z,31.41
2022-07-29T13:39:23.760Z,31.54
2022-07-29T13:40:24.572Z,31.90
2022-07-29T13:41:28.650Z,31.90
2022-07-29T13:42:33.813Z,32.66
2022-07-29T13:43:38.142Z,33.27
2022-07-29T13:44:42.561Z,33.27
2022-07-29T13:45:48.230Z,32.95
2022-07-29T13:46:52.359Z,32.95
2022-07-29T13:47:56.433Z,33.21
2022-07-29T13:49:04.654Z,32.81
2022-07-29T13:50:13.284Z,32.13
2022-07-29T13:51:16.420Z,32.05
2022-07-29T13:52:20.917Z,32.37
2022-07-29T13:53:26.880Z,31.76
2022-07-29T13:54:31.355Z,31.76
2022-07-29T13:55:36.994Z,32.30
2022-07-29T13:56:41.738Z,32.16
2022-07-29T13:57:45.965Z,32.17
2022-07-29T13:58:50.002Z,32.17
2022-07-29T13:59:54.657Z,31.52
2022-07-29T14:01:01.042Z,32.58
2022-07-29T14:02:06.602Z,32.58
2022-07-29T14:03:10.727Z,31.91
2022-07-29T14:04:15.057Z,31.90
2022-07-29T14:05:21.247Z,32.34
2022-07-29T14:06:27.584Z,32.34
2022-07-29T14:07:38.861Z,32.87
2022-07-29T14:08:45.954Z,33.00
2022-07-29T14:09:50.089Z,33.83
2022-07-29T14:10:55.933Z,34.86
2022-07-29T14:12:03.138Z,34.67
2022-07-29T14:13:20.803Z,34.67
2022-07-29T14:14:24.937Z,32.99
2022-07-29T14:15:32.899Z,32.81
2022-07-29T14:16:42.381Z,32.21
2022-07-29T14:17:45.011Z,32.37
2022-07-29T14:18:50.533Z,33.02
2022-07-29T14:20:02.160Z,33.02
2022-07-29T14:21:11.055Z,33.36
2022-07-29T14:22:12.318Z,33.29
2022-07-29T14:23:33.768Z,33.74
2022-07-29T14:24:37.309Z,33.74
2022-07-29T14:27:10.992Z,32.74
2022-07-29T14:29:37.294Z,32.79
2022-07-29T14:32:03.187Z,33.30
2022-07-29T14:33:11.902Z,33.02
2022-07-29T14:34:16.085Z,33.29
2022-07-29T14:35:24.913Z,33.00
2022-07-29T14:36:34.936Z,33.00
2022-07-29T14:37:39.767Z,33.27
2022-07-29T14:38:46.411Z,33.27
2022-07-29T14:39:52.385Z,33.21
2022-07-29T14:41:12.111Z,32.39
2022-07-29T14:42:11.653Z,32.39
2022-07-29T14:43:19.186Z,32.93
2022-07-29T14:45:37.083Z,32.69
2022-07-29T14:46:44.058Z,33.14
2022-07-29T14:47:48.588Z,32.87
2022-07-29T14:48:57.358Z,33.59
2022-07-29T14:50:01.575Z,33.30
2022-07-29T14:51:07.902Z,33.30
2022-07-29T14:52:13.951Z,33.35
2022-07-29T14:53:29.399Z,33.02
2022-07-29T14:55:49.864Z,33.51
2022-07-29T14:56:55.467Z,33.51
2022-07-29T14:58:07.970Z,34.00
2022-07-29T14:59:05.536Z,35.18